Terminal Aerodrome Forecast
Issued by NWS

Home | Current Version | Previous Version | Text Only | Print | Product List | Glossary On
Versions: 1 2 3 4 5 6 7 8 9 10 11 12 13 14 15 16 17 18 19
000
FTUS43 KDVN 170500
TAFCID
TAF
KCID 170520Z 1706/1806 10003KT 6SM BR BKN250
      TEMPO 1706/1709 2SM BR SCT003
     FM170900 VRB03KT 1/2SM FG VV001
     FM171400 06005KT 4SM BR BKN008
     FM171600 08006KT P6SM BKN015
     FM171800 10007KT P6SM SCT025 SCT250=

USA.gov is the U.S. government's official web portal to all federal, state and local government web resources and services.